createdAt,value
2023-05-08T00:01:31.201Z,4.90
2023-05-08T00:03:58.534Z,4.97
2023-05-08T00:06:27.140Z,5.10
2023-05-08T00:08:55.348Z,5.10
2023-05-08T00:11:22.402Z,5.13
2023-05-08T00:13:49.459Z,5.18
2023-05-08T00:16:16.525Z,5.70
2023-05-08T00:18:43.497Z,5.05
2023-05-08T00:21:10.520Z,4.55
2023-05-08T00:23:37.747Z,4.63
2023-05-08T00:26:04.878Z,5.53
2023-05-08T00:28:31.823Z,5.00
2023-05-08T00:31:04.751Z,5.20
2023-05-08T00:33:31.909Z,4.63
2023-05-08T00:36:02.424Z,4.40
2023-05-08T00:38:35.973Z,4.70
2023-05-08T00:41:03.142Z,4.57
2023-05-08T00:43:30.213Z,4.75
2023-05-08T00:45:59.048Z,4.82
2023-05-08T00:48:26.048Z,5.07
2023-05-08T00:50:53.275Z,4.60
2023-05-08T00:53:20.819Z,4.60
2023-05-08T00:55:47.795Z,5.18
2023-05-08T00:58:14.841Z,4.80
2023-05-08T01:00:41.943Z,4.63
2023-05-08T01:03:09.695Z,4.85
2023-05-08T01:05:36.883Z,4.90
2023-05-08T01:08:04.051Z,4.68
2023-05-08T01:10:44.905Z,4.82
2023-05-08T01:13:18.756Z,4.43
2023-05-08T01:15:50.161Z,4.82
2023-05-08T01:18:29.063Z,5.22
2023-05-08T01:21:14.461Z,4.97
2023-05-08T01:23:57.480Z,4.95
2023-05-08T01:26:52.420Z,4.80
2023-05-08T01:29:44.305Z,5.18
2023-05-08T01:32:30.544Z,5.90
2023-05-08T01:35:06.684Z,6.70
2023-05-08T01:37:46.333Z,5.82
2023-05-08T01:40:35.482Z,6.32
2023-05-08T01:43:18.067Z,5.95
2023-05-08T01:45:48.706Z,5.72
2023-05-08T01:48:23.032Z,6.38
2023-05-08T01:51:02.559Z,5.43
2023-05-08T01:53:31.765Z,6.07
2023-05-08T01:56:12.238Z,5.75
2023-05-08T01:58:39.362Z,6.28
2023-05-08T02:01:06.329Z,6.13
2023-05-08T02:03:33.651Z,6.10
2023-05-08T02:06:01.035Z,6.25
2023-05-08T02:08:29.263Z,6.97
2023-05-08T02:10:56.828Z,6.50
2023-05-08T02:13:23.989Z,6.18
2023-05-08T02:15:51.947Z,6.50
2023-05-08T02:18:20.690Z,6.65
2023-05-08T02:20:49.265Z,7.22
2023-05-08T02:23:16.601Z,7.18
2023-05-08T02:25:43.908Z,6.90
2023-05-08T02:28:10.899Z,7.47
2023-05-08T02:30:39.200Z,6.60
2023-05-08T02:33:08.151Z,6.38
2023-05-08T02:35:35.505Z,7.13
2023-05-08T02:38:02.575Z,7.32
2023-05-08T02:40:29.625Z,6.93
2023-05-08T02:42:57.370Z,6.97
2023-05-08T02:45:27.374Z,6.75
2023-05-08T02:48:08.048Z,6.70
2023-05-08T02:50:38.817Z,7.07
2023-05-08T02:53:09.487Z,6.35
2023-05-08T02:55:46.006Z,6.78
2023-05-08T02:58:35.238Z,6.20
2023-05-08T03:01:23.962Z,6.47
2023-05-08T03:03:57.454Z,6.47
2023-05-08T03:06:24.544Z,6.90
2023-05-08T03:08:51.593Z,7.00
2023-05-08T03:11:21.820Z,6.28
2023-05-08T03:13:48.773Z,7.07
2023-05-08T03:16:18.854Z,7.28
2023-05-08T03:19:07.496Z,6.35
2023-05-08T03:21:34.806Z,6.13
2023-05-08T03:24:02.353Z,7.32
2023-05-08T03:26:29.447Z,6.85
2023-05-08T03:28:56.687Z,6.85
2023-05-08T03:31:28.071Z,7.40
2023-05-08T03:33:55.163Z,6.70
2023-05-08T03:36:24.970Z,6.22
2023-05-08T03:38:52.219Z,6.60
2023-05-08T03:41:19.504Z,7.43
2023-05-08T03:43:47.442Z,7.07
2023-05-08T03:46:14.449Z,6.47
2023-05-08T03:48:41.500Z,6.43
2023-05-08T03:51:08.491Z,7.38
2023-05-08T03:53:38.190Z,6.90
2023-05-08T03:56:05.338Z,6.90
2023-05-08T03:58:49.219Z,6.90
2023-05-08T04:01:16.150Z,6.63
2023-05-08T04:03:59.368Z,6.72
2023-05-08T04:06:48.568Z,7.72
2023-05-08T04:09:25.241Z,7.20
2023-05-08T04:12:10.913Z,6.20
2023-05-08T04:14:56.391Z,6.60
2023-05-08T04:17:40.526Z,6.32
2023-05-08T04:20:10.305Z,6.60
2023-05-08T04:22:37.478Z,7.18
2023-05-08T04:25:05.274Z,7.25
2023-05-08T04:27:32.269Z,6.68
2023-05-08T04:29:59.319Z,7.03
2023-05-08T04:32:26.575Z,6.50
2023-05-08T04:34:55.422Z,6.65
2023-05-08T04:37:27.495Z,6.28
2023-05-08T04:39:56.558Z,6.97
2023-05-08T04:42:25.951Z,6.57
2023-05-08T04:44:54.931Z,6.78
2023-05-08T04:47:22.209Z,6.90
2023-05-08T04:49:49.182Z,6.40
2023-05-08T04:52:16.325Z,6.90
2023-05-08T04:54:43.238Z,6.20
2023-05-08T04:57:10.685Z,6.63
2023-05-08T04:59:37.691Z,6.75
2023-05-08T05:02:06.846Z,6.90
2023-05-08T05:04:35.554Z,6.25
2023-05-08T05:07:03.800Z,6.95
2023-05-08T05:09:30.841Z,6.90
2023-05-08T05:11:58.378Z,6.93
2023-05-08T05:14:25.602Z,6.93
2023-05-08T05:16:52.851Z,7.50
2023-05-08T05:19:19.979Z,7.00
2023-05-08T05:21:47.023Z,7.82
2023-05-08T05:24:14.133Z,7.40
2023-05-08T05:26:41.315Z,6.25
2023-05-08T05:29:08.501Z,7.93
2023-05-08T05:31:35.609Z,7.72
2023-05-08T05:34:02.609Z,6.80
2023-05-08T05:36:30.840Z,7.30
2023-05-08T05:38:57.872Z,7.53
2023-05-08T05:41:24.903Z,7.38
2023-05-08T05:43:51.964Z,7.20
2023-05-08T05:46:19.190Z,7.18
2023-05-08T05:48:46.396Z,6.97
2023-05-08T05:51:14.044Z,6.93
2023-05-08T05:53:41.121Z,7.65
2023-05-08T05:56:08.230Z,6.97
2023-05-08T05:58:35.481Z,7.90
2023-05-08T06:01:02.475Z,7.07
2023-05-08T06:03:30.612Z,7.30
2023-05-08T06:05:58.211Z,7.63
2023-05-08T06:08:27.095Z,7.68
2023-05-08T06:10:56.748Z,7.10
2023-05-08T06:13:23.924Z,6.97
2023-05-08T06:15:51.618Z,7.93
2023-05-08T06:18:18.689Z,6.88
2023-05-08T06:20:45.673Z,7.47
2023-05-08T06:23:13.415Z,7.70
2023-05-08T06:25:40.418Z,7.40
2023-05-08T06:28:08.343Z,6.93
2023-05-08T06:30:35.455Z,7.40
2023-05-08T06:33:02.541Z,7.53
2023-05-08T06:35:29.676Z,7.43
2023-05-08T06:37:56.773Z,7.43
2023-05-08T06:40:23.896Z,6.60
2023-05-08T06:42:51.115Z,6.97
2023-05-08T06:45:18.221Z,7.03
2023-05-08T06:47:45.248Z,7.90
2023-05-08T06:50:12.277Z,7.55
2023-05-08T06:52:39.336Z,7.55
2023-05-08T06:55:06.519Z,8.07
2023-05-08T06:57:33.633Z,7.95
2023-05-08T07:00:00.893Z,7.45
2023-05-08T07:02:28.048Z,8.18
2023-05-08T07:04:55.159Z,8.05
2023-05-08T07:07:22.456Z,8.07
2023-05-08T07:09:49.448Z,7.63
2023-05-08T07:12:16.862Z,7.32
2023-05-08T07:14:43.966Z,7.25
2023-05-08T07:17:11.124Z,7.22
2023-05-08T07:19:38.362Z,7.10
2023-05-08T07:22:05.799Z,7.53
2023-05-08T07:24:33.109Z,7.65
2023-05-08T07:27:00.197Z,7.18
2023-05-08T07:29:27.223Z,7.30
2023-05-08T07:31:54.445Z,7.07
2023-05-08T07:34:21.530Z,7.15
2023-05-08T07:36:48.505Z,7.68
2023-05-08T07:39:15.720Z,7.50
2023-05-08T07:41:43.100Z,7.13
2023-05-08T07:44:10.224Z,7.43
2023-05-08T07:46:37.592Z,7.15
2023-05-08T07:49:04.747Z,7.25
2023-05-08T07:51:32.509Z,7.78
2023-05-08T07:53:59.578Z,7.53
2023-05-08T07:56:27.479Z,7.03
2023-05-08T07:58:54.633Z,7.70
2023-05-08T08:01:21.786Z,7.63
2023-05-08T08:03:49.197Z,7.35
2023-05-08T08:06:17.134Z,7.45
2023-05-08T08:08:44.631Z,7.78
2023-05-08T08:11:11.787Z,7.53
2023-05-08T08:13:39.119Z,8.07
2023-05-08T08:16:06.671Z,7.38
2023-05-08T08:18:37.108Z,7.70
2023-05-08T08:21:07.634Z,10.07
2023-05-08T08:23:34.818Z,7.47
2023-05-08T08:26:01.816Z,7.97
2023-05-08T08:28:29.287Z,7.85
2023-05-08T08:30:56.448Z,9.10
2023-05-08T08:33:23.590Z,7.60
2023-05-08T08:35:50.592Z,8.02
2023-05-08T08:38:17.662Z,7.20
2023-05-08T08:40:44.726Z,7.65
2023-05-08T08:43:11.720Z,7.90
2023-05-08T08:45:39.644Z,7.63
2023-05-08T08:48:10.118Z,7.82
2023-05-08T08:50:37.397Z,7.88
2023-05-08T08:53:21.701Z,7.97
2023-05-08T08:55:50.474Z,7.55
2023-05-08T08:58:41.034Z,7.45
2023-05-08T09:01:08.220Z,8.18
2023-05-08T09:03:35.625Z,7.32
2023-05-08T09:06:02.732Z,8.63
2023-05-08T09:08:29.950Z,7.95
2023-05-08T09:10:56.953Z,8.30
2023-05-08T09:13:24.046Z,7.95
2023-05-08T09:15:51.273Z,7.85
2023-05-08T09:18:19.353Z,7.97
2023-05-08T09:20:46.679Z,8.23
2023-05-08T09:23:17.349Z,8.55
2023-05-08T09:28:18.736Z,7.35
2023-05-08T09:30:53.213Z,7.72
2023-05-08T09:33:21.027Z,7.93
2023-05-08T09:35:50.800Z,8.77
2023-05-08T09:38:37.319Z,8.07
2023-05-08T09:41:11.596Z,8.75
2023-05-08T09:43:38.873Z,7.47
2023-05-08T09:46:24.675Z,8.70
2023-05-08T09:48:59.227Z,8.45
2023-05-08T09:51:27.818Z,8.85
2023-05-08T09:53:55.499Z,8.68
2023-05-08T09:56:39.472Z,8.60
2023-05-08T09:59:29.974Z,8.25
2023-05-08T10:01:58.035Z,8.73
2023-05-08T10:04:32.463Z,8.88
2023-05-08T10:06:59.667Z,7.45
2023-05-08T10:09:32.854Z,8.93
2023-05-08T10:12:06.434Z,8.60
2023-05-08T10:14:33.464Z,8.10
2023-05-08T10:17:00.609Z,8.60
2023-05-08T10:19:28.461Z,9.50
2023-05-08T10:21:56.358Z,8.77
2023-05-08T10:24:33.376Z,8.18
2023-05-08T10:27:20.081Z,8.32
2023-05-08T10:29:52.542Z,7.57
2023-05-08T10:32:20.415Z,7.88
2023-05-08T10:34:59.126Z,8.15
2023-05-08T10:37:26.432Z,7.90
2023-05-08T10:39:54.006Z,8.40
2023-05-08T10:42:21.211Z,8.35
2023-05-08T10:44:48.245Z,8.45
2023-05-08T10:47:40.390Z,7.95
2023-05-08T10:50:19.478Z,8.07
2023-05-08T10:53:14.340Z,8.25
2023-05-08T10:55:42.401Z,7.43
2023-05-08T10:58:15.208Z,9.43
2023-05-08T11:00:57.605Z,7.63
2023-05-08T11:03:32.205Z,8.98
2023-05-08T11:06:00.560Z,9.57
2023-05-08T11:08:28.238Z,8.82
2023-05-08T11:11:01.895Z,8.77
2023-05-08T11:13:36.423Z,8.15
2023-05-08T11:16:04.146Z,9.07
2023-05-08T11:18:45.696Z,9.27
2023-05-08T11:21:20.786Z,7.70
2023-05-08T11:23:47.767Z,8.00
2023-05-08T11:26:17.576Z,7.20
2023-05-08T11:28:53.781Z,7.07
2023-05-08T11:31:20.949Z,8.82
2023-05-08T11:33:48.060Z,7.72
2023-05-08T11:36:15.458Z,8.32
2023-05-08T11:38:43.798Z,6.90
2023-05-08T11:41:11.252Z,7.65
2023-05-08T11:43:55.527Z,7.50
2023-05-08T11:46:22.692Z,6.65
2023-05-08T11:48:49.896Z,7.95
2023-05-08T11:51:18.174Z,8.48
2023-05-08T11:53:45.229Z,8.23
2023-05-08T11:56:12.205Z,8.65
2023-05-08T11:58:39.268Z,9.00
2023-05-08T12:01:06.775Z,9.15
2023-05-08T12:03:33.963Z,9.15
2023-05-08T12:06:01.035Z,9.35
2023-05-08T12:08:28.051Z,8.65
2023-05-08T12:10:56.898Z,9.60
2023-05-08T12:13:26.095Z,9.70
2023-05-08T12:15:57.637Z,9.90
2023-05-08T12:18:26.249Z,10.00
2023-05-08T12:21:00.057Z,10.23
2023-05-08T12:23:28.859Z,10.88
2023-05-08T12:25:59.040Z,9.40
2023-05-08T12:28:26.170Z,9.55
2023-05-08T12:30:53.498Z,10.10
2023-05-08T12:33:20.505Z,9.23
2023-05-08T12:35:47.482Z,8.90
2023-05-08T12:38:14.542Z,9.00
2023-05-08T12:40:44.728Z,9.52
2023-05-08T12:43:11.910Z,8.95
2023-05-08T12:45:40.534Z,9.07
2023-05-08T12:48:09.026Z,8.93
2023-05-08T12:50:43.394Z,9.07
2023-05-08T12:53:14.901Z,9.20
2023-05-08T12:56:08.200Z,9.75
2023-05-08T12:58:35.617Z,8.77
2023-05-08T13:01:13.549Z,8.15
2023-05-08T13:03:41.208Z,8.57
2023-05-08T13:06:10.769Z,9.38
2023-05-08T13:08:38.425Z,8.60
2023-05-08T13:11:06.326Z,8.27
2023-05-08T13:13:34.533Z,8.25
2023-05-08T13:16:05.786Z,8.15
2023-05-08T13:18:33.069Z,7.85
2023-05-08T13:21:02.222Z,8.75
2023-05-08T13:23:29.418Z,6.97
2023-05-08T13:25:56.777Z,7.55
2023-05-08T13:28:23.824Z,8.07
2023-05-08T13:30:50.815Z,8.15
2023-05-08T13:33:17.821Z,7.13
2023-05-08T13:35:46.069Z,7.88
2023-05-08T13:38:13.224Z,8.43
2023-05-08T13:40:40.359Z,8.48
2023-05-08T13:43:07.390Z,8.82
2023-05-08T13:45:34.506Z,9.27
2023-05-08T13:48:01.560Z,8.52
2023-05-08T13:50:28.632Z,8.95
2023-05-08T13:52:55.636Z,8.43
2023-05-08T13:55:23.401Z,8.93
2023-05-08T13:57:50.734Z,8.63
2023-05-08T14:00:18.304Z,8.68
2023-05-08T14:02:45.514Z,8.52
2023-05-08T14:05:12.824Z,8.38
2023-05-08T14:07:40.223Z,8.60
2023-05-08T14:10:07.430Z,8.23
2023-05-08T14:12:36.476Z,8.35
2023-05-08T14:15:04.865Z,8.02
2023-05-08T14:17:32.021Z,7.45
2023-05-08T14:19:59.348Z,7.38
2023-05-08T14:22:26.393Z,6.78
2023-05-08T14:24:53.386Z,6.95
2023-05-08T14:27:20.592Z,6.50
2023-05-08T14:29:47.824Z,6.40
2023-05-08T14:32:14.811Z,6.82
2023-05-08T14:34:42.110Z,5.93
2023-05-08T14:37:09.167Z,5.85
2023-05-08T14:39:36.240Z,6.38
2023-05-08T14:44:33.220Z,5.18
2023-05-08T14:47:00.421Z,4.57
2023-05-08T14:49:36.708Z,4.88
2023-05-08T14:52:05.729Z,4.43
2023-05-08T14:54:32.923Z,3.90
2023-05-08T14:57:00.197Z,4.72
2023-05-08T14:59:27.216Z,5.07
2023-05-08T15:01:54.235Z,5.00
2023-05-08T15:04:21.445Z,5.03
2023-05-08T15:06:48.554Z,5.05
2023-05-08T15:09:16.698Z,5.15
2023-05-08T15:11:44.199Z,5.40
2023-05-08T15:14:11.403Z,5.65
2023-05-08T15:16:38.708Z,6.13
2023-05-08T15:19:05.969Z,6.03
2023-05-08T15:21:32.982Z,6.00
2023-05-08T15:24:00.052Z,5.80
2023-05-08T15:26:26.998Z,5.88
2023-05-08T15:28:54.010Z,6.90
2023-05-08T15:31:21.112Z,6.18
2023-05-08T15:33:48.474Z,7.00
2023-05-08T15:36:15.644Z,7.20
2023-05-08T15:38:42.958Z,7.55
2023-05-08T15:41:15.426Z,8.00
2023-05-08T15:43:43.170Z,7.50
2023-05-08T15:46:10.531Z,7.45
2023-05-08T15:48:37.622Z,6.68
2023-05-08T15:51:04.634Z,7.22
2023-05-08T15:53:32.970Z,6.93
2023-05-08T15:55:59.902Z,6.82
2023-05-08T15:58:27.704Z,7.60
2023-05-08T16:00:54.941Z,6.85
2023-05-08T16:03:22.155Z,6.63
2023-05-08T16:05:49.425Z,7.13
2023-05-08T16:08:16.467Z,6.57
2023-05-08T16:10:43.646Z,6.10
2023-05-08T16:13:10.817Z,6.38
2023-05-08T16:15:37.858Z,6.35
2023-05-08T16:18:05.111Z,5.35
2023-05-08T16:20:33.571Z,5.45
2023-05-08T16:23:02.775Z,7.47
2023-05-08T16:25:29.722Z,6.07
2023-05-08T16:27:56.725Z,6.78
2023-05-08T16:30:23.774Z,6.18
2023-05-08T16:32:50.872Z,6.22
2023-05-08T16:35:18.072Z,6.55
2023-05-08T16:37:45.545Z,6.38
2023-05-08T16:40:12.750Z,6.20
2023-05-08T16:42:39.797Z,6.20
2023-05-08T16:45:07.843Z,6.07
2023-05-08T16:47:35.058Z,6.40
2023-05-08T16:50:02.148Z,6.82
2023-05-08T16:52:29.644Z,6.47
2023-05-08T16:54:56.887Z,6.93
2023-05-08T16:57:24.004Z,6.95
2023-05-08T16:59:51.958Z,7.40
2023-05-08T17:02:19.346Z,7.22
2023-05-08T17:04:47.393Z,6.65
2023-05-08T17:07:14.962Z,6.93
2023-05-08T17:09:42.054Z,7.00
2023-05-08T17:12:09.383Z,6.82
2023-05-08T17:14:39.289Z,6.57
2023-05-08T17:17:07.117Z,6.53
2023-05-08T17:19:34.321Z,6.97
2023-05-08T17:22:01.457Z,6.75
2023-05-08T17:24:32.352Z,7.05
2023-05-08T17:26:59.675Z,6.45
2023-05-08T17:29:26.806Z,6.50
2023-05-08T17:31:53.845Z,7.28
2023-05-08T17:34:22.735Z,6.78
2023-05-08T17:36:50.124Z,6.88
2023-05-08T17:39:19.939Z,7.28
2023-05-08T17:41:49.880Z,7.53
2023-05-08T17:44:17.184Z,6.65
2023-05-08T17:46:44.502Z,7.35
2023-05-08T17:49:11.547Z,7.47
2023-05-08T17:51:38.629Z,7.85
2023-05-08T17:54:05.698Z,7.93
2023-05-08T17:56:32.747Z,7.80
2023-05-08T17:58:59.724Z,8.30
2023-05-08T18:01:26.802Z,7.47
2023-05-08T18:03:53.784Z,8.30
2023-05-08T18:06:20.966Z,8.80
2023-05-08T18:08:48.087Z,9.07
2023-05-08T18:11:18.900Z,9.73
2023-05-08T18:13:46.101Z,8.05
2023-05-08T18:16:13.729Z,9.65
2023-05-08T18:18:40.798Z,8.27
2023-05-08T18:21:07.992Z,8.90
2023-05-08T18:23:35.031Z,8.00
2023-05-08T18:26:02.318Z,8.40
2023-05-08T18:28:29.328Z,8.45
2023-05-08T18:30:56.493Z,7.45
2023-05-08T18:33:23.507Z,7.80
2023-05-08T18:35:51.448Z,8.25
2023-05-08T18:38:18.553Z,8.30
2023-05-08T18:40:45.892Z,9.10
2023-05-08T18:43:12.913Z,9.75
2023-05-08T18:45:40.541Z,8.73
2023-05-08T18:48:08.566Z,8.90
2023-05-08T18:50:35.714Z,7.72
2023-05-08T18:53:02.772Z,10.30
2023-05-08T18:55:29.738Z,8.43
2023-05-08T18:57:56.802Z,7.78
2023-05-08T19:00:24.332Z,7.93
2023-05-08T19:02:51.673Z,8.27
2023-05-08T19:05:19.129Z,8.25
2023-05-08T19:07:46.199Z,7.88
2023-05-08T19:10:14.000Z,8.43
2023-05-08T19:12:41.232Z,8.43
2023-05-08T19:15:13.771Z,8.48
2023-05-08T19:17:41.452Z,7.40
2023-05-08T19:20:08.968Z,8.40
2023-05-08T19:22:36.165Z,7.93
2023-05-08T19:25:03.637Z,8.10
2023-05-08T19:27:32.188Z,7.70
2023-05-08T19:29:59.256Z,8.80
2023-05-08T19:32:26.343Z,7.93
2023-05-08T19:34:55.424Z,8.02
2023-05-08T19:37:22.416Z,8.07
2023-05-08T19:39:49.398Z,7.45
2023-05-08T19:42:16.642Z,7.85
2023-05-08T19:44:43.652Z,8.18
2023-05-08T19:47:10.620Z,7.18
2023-05-08T19:49:37.645Z,8.60
2023-05-08T19:52:04.845Z,7.90
2023-05-08T19:54:31.958Z,7.47
2023-05-08T19:56:59.323Z,7.75
2023-05-08T19:59:26.811Z,7.07
2023-05-08T20:01:53.991Z,7.53
2023-05-08T20:04:21.229Z,8.15
2023-05-08T20:06:48.258Z,7.53
2023-05-08T20:09:15.213Z,8.00
2023-05-08T20:11:42.213Z,7.72
2023-05-08T20:14:09.331Z,7.47
2023-05-08T20:16:36.947Z,7.68
2023-05-08T20:19:04.031Z,8.55
2023-05-08T20:21:32.480Z,7.38
2023-05-08T20:24:02.648Z,7.03
2023-05-08T20:26:29.917Z,7.50
2023-05-08T20:28:57.364Z,7.63
2023-05-08T20:31:25.960Z,8.65
2023-05-08T20:33:53.383Z,7.57
2023-05-08T20:36:20.595Z,7.75
2023-05-08T20:38:47.645Z,7.55
2023-05-08T20:41:14.648Z,7.90
2023-05-08T20:43:41.613Z,8.98
2023-05-08T20:46:08.751Z,8.68
2023-05-08T20:48:36.781Z,7.95
2023-05-08T20:51:04.161Z,8.43
2023-05-08T20:53:32.120Z,7.53
2023-05-08T20:56:02.787Z,8.25
2023-05-08T20:58:29.867Z,8.05
2023-05-08T21:00:56.920Z,8.50
2023-05-08T21:03:24.021Z,7.85
2023-05-08T21:05:51.562Z,7.47
2023-05-08T21:08:22.057Z,7.22
2023-05-08T21:10:49.185Z,7.32
2023-05-08T21:13:16.582Z,7.65
2023-05-08T21:15:43.882Z,6.60
2023-05-08T21:18:12.023Z,6.72
2023-05-08T21:20:39.059Z,6.57
2023-05-08T21:23:06.202Z,6.13
2023-05-08T21:25:33.448Z,5.90
2023-05-08T21:28:00.557Z,6.47
2023-05-08T21:30:28.254Z,6.03
2023-05-08T21:32:55.681Z,6.30
2023-05-08T21:35:22.874Z,7.00
2023-05-08T21:37:53.853Z,6.90
2023-05-08T21:40:22.047Z,6.72
2023-05-08T21:42:49.127Z,6.45
2023-05-08T21:45:16.403Z,6.15
2023-05-08T21:47:43.617Z,7.05
2023-05-08T21:50:11.093Z,7.63
2023-05-08T21:52:38.218Z,6.97
2023-05-08T21:55:08.810Z,7.28
2023-05-08T21:57:36.099Z,7.35
2023-05-08T22:00:04.453Z,7.00
2023-05-08T22:02:32.518Z,6.85
2023-05-08T22:04:59.630Z,7.00
2023-05-08T22:07:26.626Z,6.70
2023-05-08T22:09:53.664Z,7.22
2023-05-08T22:12:20.764Z,7.85
2023-05-08T22:14:47.814Z,6.55
2023-05-08T22:17:14.858Z,6.72
2023-05-08T22:19:41.896Z,6.68
2023-05-08T22:22:08.891Z,6.78
2023-05-08T22:24:35.911Z,7.70
2023-05-08T22:27:02.933Z,7.78
2023-05-08T22:29:29.975Z,7.25
2023-05-08T22:31:57.147Z,7.90
2023-05-08T22:34:24.219Z,7.13
2023-05-08T22:36:51.244Z,6.50
2023-05-08T22:39:18.188Z,6.47
2023-05-08T22:41:45.394Z,6.65
2023-05-08T22:44:12.434Z,7.65
2023-05-08T22:46:39.581Z,7.90
2023-05-08T22:49:06.674Z,6.82
2023-05-08T22:51:33.671Z,7.60
2023-05-08T22:54:00.787Z,8.52
2023-05-08T22:56:27.796Z,7.68
2023-05-08T22:58:55.104Z,7.55
2023-05-08T23:01:22.547Z,7.60
2023-05-08T23:03:53.830Z,7.38
2023-05-08T23:06:21.073Z,7.68
2023-05-08T23:08:48.068Z,7.72
2023-05-08T23:11:15.826Z,7.82
2023-05-08T23:13:42.814Z,7.50
2023-05-08T23:16:09.792Z,7.18
2023-05-08T23:18:36.922Z,7.47
2023-05-08T23:21:07.418Z,7.57
2023-05-08T23:23:35.090Z,7.63
2023-05-08T23:26:05.097Z,7.40
2023-05-08T23:28:35.294Z,7.70
2023-05-08T23:31:02.612Z,7.32
2023-05-08T23:33:29.696Z,8.38
2023-05-08T23:35:57.382Z,8.80
2023-05-08T23:38:24.569Z,9.15
2023-05-08T23:40:51.734Z,8.45
2023-05-08T23:43:18.727Z,8.48
2023-05-08T23:45:45.711Z,8.10
2023-05-08T23:48:12.723Z,8.15
2023-05-08T23:50:40.821Z,8.80
2023-05-08T23:53:07.936Z,7.60
2023-05-08T23:55:36.541Z,8.68
2023-05-08T23:58:04.083Z,8.35
